sensor_id;sensor_type;location;lat;lon;timestamp;pressure;altitude;pressure_sealevel;temperature;humidity
77333;BME280;66408;51.326;12.070;2023-04-25T00:02:01;99877.88;;;8.16;64.24
77333;BME280;66408;51.326;12.070;2023-04-25T00:04:27;99878.66;;;8.16;63.88
77333;BME280;66408;51.326;12.070;2023-04-25T00:06:56;99880.44;;;8.07;64.22
77333;BME280;66408;51.326;12.070;2023-04-25T00:09:23;99868.81;;;8.07;64.11
77333;BME280;66408;51.326;12.070;2023-04-25T00:11:50;99874.94;;;7.99;64.71
77333;BME280;66408;51.326;12.070;2023-04-25T00:14:16;99867.03;;;8.02;64.30
77333;BME280;66408;51.326;12.070;2023-04-25T00:16:43;99870.44;;;8.08;65.35
77333;BME280;66408;51.326;12.070;2023-04-25T00:19:10;99875.19;;;8.16;65.80
77333;BME280;66408;51.326;12.070;2023-04-25T00:21:37;99874.34;;;8.29;65.29
77333;BME280;66408;51.326;12.070;2023-04-25T00:24:06;99878.84;;;8.39;65.03
77333;BME280;66408;51.326;12.070;2023-04-25T00:26:34;99869.19;;;8.46;64.51
77333;BME280;66408;51.326;12.070;2023-04-25T00:29:02;99884.66;;;8.46;64.81
77333;BME280;66408;51.326;12.070;2023-04-25T00:31:28;99884.13;;;8.44;64.87
77333;BME280;66408;51.326;12.070;2023-04-25T00:33:55;99886.44;;;8.37;64.57
77333;BME280;66408;51.326;12.070;2023-04-25T00:36:22;99890.94;;;8.41;64.77
77333;BME280;66408;51.326;12.070;2023-04-25T00:38:48;99889.16;;;8.37;64.48
77333;BME280;66408;51.326;12.070;2023-04-25T00:41:15;99896.50;;;8.36;64.96
77333;BME280;66408;51.326;12.070;2023-04-25T00:43:42;99896.50;;;8.36;64.86
77333;BME280;66408;51.326;12.070;2023-04-25T00:46:09;99898.69;;;8.34;65.26
77333;BME280;66408;51.326;12.070;2023-04-25T00:48:36;99892.09;;;8.40;64.93
77333;BME280;66408;51.326;12.070;2023-04-25T00:51:02;99898.28;;;8.41;65.00
77333;BME280;66408;51.326;12.070;2023-04-25T00:53:30;99900.31;;;8.49;64.92
77333;BME280;66408;51.326;12.070;2023-04-25T00:55:58;99900.69;;;8.42;65.12
77333;BME280;66408;51.326;12.070;2023-04-25T00:58:24;99900.09;;;8.45;64.42
77333;BME280;66408;51.326;12.070;2023-04-25T01:00:52;99906.09;;;8.42;64.29
77333;BME280;66408;51.326;12.070;2023-04-25T01:03:19;99900.81;;;8.37;64.90
77333;BME280;66408;51.326;12.070;2023-04-25T01:05:47;99901.31;;;8.39;64.23
77333;BME280;66408;51.326;12.070;2023-04-25T01:08:14;99902.13;;;8.40;64.43
77333;BME280;66408;51.326;12.070;2023-04-25T01:10:41;99898.09;;;8.37;64.04
77333;BME280;66408;51.326;12.070;2023-04-25T01:13:07;99905.81;;;8.44;64.09
77333;BME280;66408;51.326;12.070;2023-04-25T01:15:34;99894.16;;;8.43;64.08
77333;BME280;66408;51.326;12.070;2023-04-25T01:18:03;99888.25;;;8.41;63.69
77333;BME280;66408;51.326;12.070;2023-04-25T01:20:32;99888.75;;;8.43;63.86
77333;BME280;66408;51.326;12.070;2023-04-25T01:26:40;99895.56;;;8.27;63.35
77333;BME280;66408;51.326;12.070;2023-04-25T01:29:10;99894.78;;;8.08;64.23
77333;BME280;66408;51.326;12.070;2023-04-25T01:31:37;99897.31;;;8.18;63.99
77333;BME280;66408;51.326;12.070;2023-04-25T01:34:04;99901.94;;;8.17;64.30
77333;BME280;66408;51.326;12.070;2023-04-25T01:36:31;99901.44;;;8.15;64.05
77333;BME280;66408;51.326;12.070;2023-04-25T01:38:57;99892.72;;;8.18;63.76
77333;BME280;66408;51.326;12.070;2023-04-25T01:41:24;99898.53;;;8.12;64.15
77333;BME280;66408;51.326;12.070;2023-04-25T01:43:51;99901.75;;;8.14;63.71
77333;BME280;66408;51.326;12.070;2023-04-25T01:46:18;99901.31;;;8.07;63.82
77333;BME280;66408;51.326;12.070;2023-04-25T01:48:44;99904.19;;;7.97;64.39
77333;BME280;66408;51.326;12.070;2023-04-25T01:51:12;99892.78;;;8.00;64.04
77333;BME280;66408;51.326;12.070;2023-04-25T01:53:39;99893.44;;;7.91;64.60
77333;BME280;66408;51.326;12.070;2023-04-25T01:56:05;99896.94;;;7.92;64.62
77333;BME280;66408;51.326;12.070;2023-04-25T01:58:32;99896.94;;;7.78;64.85
77333;BME280;66408;51.326;12.070;2023-04-25T02:00:58;99888.00;;;7.78;65.20
77333;BME280;66408;51.326;12.070;2023-04-25T02:03:25;99894.53;;;7.77;65.16
77333;BME280;66408;51.326;12.070;2023-04-25T02:05:52;99892.34;;;7.79;64.85
77333;BME280;66408;51.326;12.070;2023-04-25T02:08:19;99896.13;;;7.78;64.55
77333;BME280;66408;51.326;12.070;2023-04-25T02:10:45;99889.31;;;7.80;64.57
77333;BME280;66408;51.326;12.070;2023-04-25T02:13:11;99887.91;;;7.83;64.90
77333;BME280;66408;51.326;12.070;2023-04-25T02:15:38;99884.50;;;7.77;64.90
77333;BME280;66408;51.326;12.070;2023-04-25T02:18:04;99884.22;;;7.79;65.14
77333;BME280;66408;51.326;12.070;2023-04-25T02:20:33;99887.50;;;7.76;65.45
77333;BME280;66408;51.326;12.070;2023-04-25T02:23:00;99885.31;;;7.78;65.61
77333;BME280;66408;51.326;12.070;2023-04-25T02:25:26;99880.53;;;7.88;65.21
77333;BME280;66408;51.326;12.070;2023-04-25T02:27:53;99887.09;;;7.82;65.21
77333;BME280;66408;51.326;12.070;2023-04-25T02:30:20;99885.78;;;7.80;65.34
77333;BME280;66408;51.326;12.070;2023-04-25T02:32:46;99885.72;;;7.85;65.23
77333;BME280;66408;51.326;12.070;2023-04-25T02:35:13;99879.72;;;7.88;64.63
77333;BME280;66408;51.326;12.070;2023-04-25T02:37:40;99876.50;;;7.86;64.98
77333;BME280;66408;51.326;12.070;2023-04-25T02:40:07;99870.88;;;7.82;65.54
77333;BME280;66408;51.326;12.070;2023-04-25T02:42:34;99876.44;;;7.91;65.30
77333;BME280;66408;51.326;12.070;2023-04-25T02:45:01;99868.72;;;7.98;65.51
77333;BME280;66408;51.326;12.070;2023-04-25T02:47:28;99867.31;;;8.01;65.05
77333;BME280;66408;51.326;12.070;2023-04-25T02:49:55;99866.69;;;8.04;64.71
77333;BME280;66408;51.326;12.070;2023-04-25T02:52:22;99870.09;;;7.96;65.10
77333;BME280;66408;51.326;12.070;2023-04-25T02:54:48;99872.72;;;8.01;64.58
77333;BME280;66408;51.326;12.070;2023-04-25T02:57:15;99877.16;;;8.10;64.87
77333;BME280;66408;51.326;12.070;2023-04-25T02:59:41;99876.75;;;8.17;64.25
77333;BME280;66408;51.326;12.070;2023-04-25T03:02:07;99871.16;;;8.13;64.30
77333;BME280;66408;51.326;12.070;2023-04-25T03:04:34;99868.94;;;8.02;64.19
77333;BME280;66408;51.326;12.070;2023-04-25T03:07:01;99871.75;;;8.10;64.39
77333;BME280;66408;51.326;12.070;2023-04-25T03:09:27;99860.63;;;8.12;64.32
77333;BME280;66408;51.326;12.070;2023-04-25T03:11:53;99867.31;;;8.01;64.55
77333;BME280;66408;51.326;12.070;2023-04-25T03:14:20;99872.03;;;8.09;63.87
77333;BME280;66408;51.326;12.070;2023-04-25T03:16:46;99870.22;;;8.04;63.83
77333;BME280;66408;51.326;12.070;2023-04-25T03:19:13;99874.22;;;8.07;63.97
77333;BME280;66408;51.326;12.070;2023-04-25T03:21:42;99875.72;;;7.99;63.86
77333;BME280;66408;51.326;12.070;2023-04-25T03:24:09;99877.88;;;7.83;64.34
77333;BME280;66408;51.326;12.070;2023-04-25T03:26:37;99866.16;;;7.74;64.63
77333;BME280;66408;51.326;12.070;2023-04-25T03:29:03;99873.81;;;7.67;64.59
77333;BME280;66408;51.326;12.070;2023-04-25T03:31:30;99861.84;;;7.54;64.79
77333;BME280;66408;51.326;12.070;2023-04-25T03:33:57;99864.94;;;7.48;65.12
77333;BME280;66408;51.326;12.070;2023-04-25T03:36:24;99863.78;;;7.54;64.89
77333;BME280;66408;51.326;12.070;2023-04-25T03:38:50;99869.84;;;7.46;65.68
77333;BME280;66408;51.326;12.070;2023-04-25T03:41:17;99876.41;;;7.58;64.95
77333;BME280;66408;51.326;12.070;2023-04-25T03:43:43;99874.44;;;7.64;64.72
77333;BME280;66408;51.326;12.070;2023-04-25T03:46:09;99877.59;;;7.52;65.22
77333;BME280;66408;51.326;12.070;2023-04-25T03:48:36;99879.03;;;7.64;64.60
77333;BME280;66408;51.326;12.070;2023-04-25T03:51:03;99875.53;;;7.63;64.46
77333;BME280;66408;51.326;12.070;2023-04-25T03:53:31;99881.75;;;7.64;64.38
77333;BME280;66408;51.326;12.070;2023-04-25T03:55:57;99880.34;;;7.66;64.21
77333;BME280;66408;51.326;12.070;2023-04-25T03:58:24;99875.81;;;7.62;64.42
77333;BME280;66408;51.326;12.070;2023-04-25T04:00:50;99877.59;;;7.52;64.42
77333;BME280;66408;51.326;12.070;2023-04-25T04:03:17;99872.81;;;7.63;64.51
77333;BME280;66408;51.326;12.070;2023-04-25T04:05:43;99870.63;;;7.65;64.34
77333;BME280;66408;51.326;12.070;2023-04-25T04:08:11;99872.66;;;7.73;63.96
77333;BME280;66408;51.326;12.070;2023-04-25T04:10:38;99868.75;;;7.79;63.56
77333;BME280;66408;51.326;12.070;2023-04-25T04:13:06;99877.56;;;7.71;63.69
77333;BME280;66408;51.326;12.070;2023-04-25T04:15:32;99884.50;;;7.77;63.69
77333;BME280;66408;51.326;12.070;2023-04-25T04:17:59;99885.78;;;7.80;63.49
77333;BME280;66408;51.326;12.070;2023-04-25T04:20:29;99891.94;;;7.85;63.25
77333;BME280;66408;51.326;12.070;2023-04-25T04:22:56;99891.19;;;7.80;63.51
77333;BME280;66408;51.326;12.070;2023-04-25T04:25:23;99892.16;;;7.89;63.37
77333;BME280;66408;51.326;12.070;2023-04-25T04:27:50;99891.75;;;7.96;63.08
77333;BME280;66408;51.326;12.070;2023-04-25T04:30:24;99901.50;;;7.97;62.92
77333;BME280;66408;51.326;12.070;2023-04-25T04:32:51;99907.19;;;7.95;63.11
77333;BME280;66408;51.326;12.070;2023-04-25T04:35:18;99912.25;;;8.02;63.15
77333;BME280;66408;51.326;12.070;2023-04-25T04:37:45;99900.31;;;8.03;62.46
77333;BME280;66408;51.326;12.070;2023-04-25T04:40:12;99905.22;;;8.01;63.00
77333;BME280;66408;51.326;12.070;2023-04-25T04:42:44;99899.69;;;8.06;62.84
77333;BME280;66408;51.326;12.070;2023-04-25T04:45:14;99892.50;;;8.01;63.28
77333;BME280;66408;51.326;12.070;2023-04-25T04:47:40;99900.09;;;7.99;63.53
77333;BME280;66408;51.326;12.070;2023-04-25T04:50:08;99895.38;;;7.91;63.67
77333;BME280;66408;51.326;12.070;2023-04-25T04:52:36;99898.38;;;7.89;63.43
77333;BME280;66408;51.326;12.070;2023-04-25T04:55:04;99901.16;;;7.84;64.45
77333;BME280;66408;51.326;12.070;2023-04-25T04:57:31;99909.19;;;7.89;64.38
77333;BME280;66408;51.326;12.070;2023-04-25T04:59:59;99918.66;;;8.06;63.37
77333;BME280;66408;51.326;12.070;2023-04-25T05:02:26;99916.38;;;8.13;63.88
77333;BME280;66408;51.326;12.070;2023-04-25T05:04:52;99921.50;;;8.14;63.77
77333;BME280;66408;51.326;12.070;2023-04-25T05:07:19;99926.53;;;8.21;63.53
77333;BME280;66408;51.326;12.070;2023-04-25T05:09:45;99930.13;;;8.30;63.43
77333;BME280;66408;51.326;12.070;2023-04-25T05:12:12;99911.63;;;8.37;63.44
77333;BME280;66408;51.326;12.070;2023-04-25T05:14:38;99909.75;;;8.38;64.20
77333;BME280;66408;51.326;12.070;2023-04-25T05:17:05;99913.63;;;8.32;63.43
77333;BME280;66408;51.326;12.070;2023-04-25T05:19:34;99922.94;;;8.25;64.05
77333;BME280;66408;51.326;12.070;2023-04-25T05:22:02;99920.91;;;8.31;63.81
77333;BME280;66408;51.326;12.070;2023-04-25T05:24:29;99923.28;;;8.38;62.96
77333;BME280;66408;51.326;12.070;2023-04-25T05:26:55;99916.94;;;8.42;63.97
77333;BME280;66408;51.326;12.070;2023-04-25T05:29:22;99915.16;;;8.51;63.57
77333;BME280;66408;51.326;12.070;2023-04-25T05:31:48;99920.38;;;8.61;63.23
77333;BME280;66408;51.326;12.070;2023-04-25T05:34:15;99920.38;;;8.61;63.40
77333;BME280;66408;51.326;12.070;2023-04-25T05:36:42;99924.41;;;8.64;62.31
77333;BME280;66408;51.326;12.070;2023-04-25T05:39:09;99924.59;;;8.81;62.25
77333;BME280;66408;51.326;12.070;2023-04-25T05:41:36;99920.09;;;8.77;62.10
77333;BME280;66408;51.326;12.070;2023-04-25T05:44:03;99926.41;;;8.86;61.85
77333;BME280;66408;51.326;12.070;2023-04-25T05:46:29;99936.75;;;8.97;62.12
77333;BME280;66408;51.326;12.070;2023-04-25T05:48:56;99930.00;;;8.95;62.28
77333;BME280;66408;51.326;12.070;2023-04-25T05:51:22;99932.00;;;9.03;63.13
77333;BME280;66408;51.326;12.070;2023-04-25T05:53:48;99942.25;;;9.06;62.79
77333;BME280;66408;51.326;12.070;2023-04-25T05:56:16;99941.97;;;9.08;61.84
77333;BME280;66408;51.326;12.070;2023-04-25T05:58:42;99937.44;;;9.03;62.07
77333;BME280;66408;51.326;12.070;2023-04-25T06:01:08;99946.75;;;9.24;61.67
77333;BME280;66408;51.326;12.070;2023-04-25T06:03:35;99953.56;;;9.35;61.44
77333;BME280;66408;51.326;12.070;2023-04-25T06:06:04;99959.81;;;9.36;61.19
77333;BME280;66408;51.326;12.070;2023-04-25T06:08:32;99951.13;;;9.48;61.04
77333;BME280;66408;51.326;12.070;2023-04-25T06:10:58;99953.88;;;9.70;60.60
77333;BME280;66408;51.326;12.070;2023-04-25T06:13:25;99944.13;;;9.91;60.30
77333;BME280;66408;51.326;12.070;2023-04-25T06:15:51;99956.84;;;10.04;59.61
77333;BME280;66408;51.326;12.070;2023-04-25T06:18:18;99946.28;;;10.03;58.90
77333;BME280;66408;51.326;12.070;2023-04-25T06:20:44;99958.50;;;10.14;59.21
77333;BME280;66408;51.326;12.070;2023-04-25T06:23:11;99956.50;;;10.20;59.29
77333;BME280;66408;51.326;12.070;2023-04-25T06:25:37;99963.78;;;10.11;59.33
77333;BME280;66408;51.326;12.070;2023-04-25T06:28:03;99967.31;;;10.11;59.12
77333;BME280;66408;51.326;12.070;2023-04-25T06:30:30;99964.88;;;10.09;59.39
77333;BME280;66408;51.326;12.070;2023-04-25T06:32:57;99970.69;;;10.17;59.38
77333;BME280;66408;51.326;12.070;2023-04-25T06:35:23;99968.69;;;10.22;59.05
77333;BME280;66408;51.326;12.070;2023-04-25T06:37:50;99969.22;;;10.11;59.33
77333;BME280;66408;51.326;12.070;2023-04-25T06:40:16;99969.66;;;10.26;58.90
77333;BME280;66408;51.326;12.070;2023-04-25T06:42:43;99971.94;;;10.33;58.60
77333;BME280;66408;51.326;12.070;2023-04-25T06:45:10;99972.56;;;10.30;59.35
77333;BME280;66408;51.326;12.070;2023-04-25T06:47:37;99962.22;;;10.40;59.10
77333;BME280;66408;51.326;12.070;2023-04-25T06:50:04;99968.25;;;10.15;58.99
77333;BME280;66408;51.326;12.070;2023-04-25T06:52:30;99969.34;;;10.28;59.55
77333;BME280;66408;51.326;12.070;2023-04-25T06:54:58;99967.31;;;10.33;59.59
77333;BME280;66408;51.326;12.070;2023-04-25T06:57:24;99981.13;;;10.46;58.57
77333;BME280;66408;51.326;12.070;2023-04-25T06:59:50;99976.50;;;10.46;58.52
77333;BME280;66408;51.326;12.070;2023-04-25T07:02:17;99976.00;;;10.44;58.42
77333;BME280;66408;51.326;12.070;2023-04-25T07:04:43;99978.91;;;10.48;58.06
77333;BME280;66408;51.326;12.070;2023-04-25T07:07:13;99980.22;;;10.28;59.11
77333;BME280;66408;51.326;12.070;2023-04-25T07:09:40;99988.66;;;10.26;58.99
77333;BME280;66408;51.326;12.070;2023-04-25T07:12:06;99996.50;;;10.28;59.40
77333;BME280;66408;51.326;12.070;2023-04-25T07:14:33;99985.88;;;10.18;59.56
77333;BME280;66408;51.326;12.070;2023-04-25T07:17:00;99985.38;;;10.16;59.15
77333;BME280;66408;51.326;12.070;2023-04-25T07:19:27;99984.78;;;10.19;59.33
77333;BME280;66408;51.326;12.070;2023-04-25T07:21:55;99986.34;;;10.33;58.40
77333;BME280;66408;51.326;12.070;2023-04-25T07:24:22;99990.66;;;10.34;59.17
77333;BME280;66408;51.326;12.070;2023-04-25T07:26:49;99996.41;;;10.33;58.82
77333;BME280;66408;51.326;12.070;2023-04-25T07:29:15;99988.16;;;10.47;58.62
77333;BME280;66408;51.326;12.070;2023-04-25T07:31:42;99992.91;;;10.41;58.63
77333;BME280;66408;51.326;12.070;2023-04-25T07:34:09;99993.31;;;10.48;58.27
77333;BME280;66408;51.326;12.070;2023-04-25T07:36:36;100004.84;;;10.31;58.90
77333;BME280;66408;51.326;12.070;2023-04-25T07:39:02;100017.63;;;10.31;59.19
77333;BME280;66408;51.326;12.070;2023-04-25T07:41:29;100011.72;;;10.29;59.11
77333;BME280;66408;51.326;12.070;2023-04-25T07:43:56;100017.59;;;10.22;58.81
77333;BME280;66408;51.326;12.070;2023-04-25T07:46:22;100019.63;;;10.03;58.42
77333;BME280;66408;51.326;12.070;2023-04-25T07:48:48;100019.94;;;10.01;58.43
77333;BME280;66408;51.326;12.070;2023-04-25T07:51:15;100017.28;;;9.88;57.02
77333;BME280;66408;51.326;12.070;2023-04-25T07:53:42;100023.44;;;10.02;56.56
77333;BME280;66408;51.326;12.070;2023-04-25T07:56:08;100031.31;;;10.03;56.94
77333;BME280;66408;51.326;12.070;2023-04-25T07:58:35;100030.03;;;10.01;55.79
77333;BME280;66408;51.326;12.070;2023-04-25T08:01:02;100030.19;;;10.04;56.62
77333;BME280;66408;51.326;12.070;2023-04-25T08:03:28;100034.69;;;10.23;55.98
77333;BME280;66408;51.326;12.070;2023-04-25T08:05:55;100033.38;;;10.42;55.61
77333;BME280;66408;51.326;12.070;2023-04-25T08:08:22;100037.19;;;10.64;55.38
77333;BME280;66408;51.326;12.070;2023-04-25T08:10:48;100033.50;;;10.91;55.34
77333;BME280;66408;51.326;12.070;2023-04-25T08:13:15;100034.13;;;11.27;55.58
77333;BME280;66408;51.326;12.070;2023-04-25T08:15:41;100035.31;;;11.52;53.85
77333;BME280;66408;51.326;12.070;2023-04-25T08:18:08;100037.13;;;11.74;53.17
77333;BME280;66408;51.326;12.070;2023-04-25T08:20:35;100044.03;;;11.88;52.52
77333;BME280;66408;51.326;12.070;2023-04-25T08:23:01;100049.81;;;11.78;52.66
77333;BME280;66408;51.326;12.070;2023-04-25T08:25:28;100049.66;;;12.01;50.84
77333;BME280;66408;51.326;12.070;2023-04-25T08:27:54;100058.50;;;12.15;50.93
77333;BME280;66408;51.326;12.070;2023-04-25T08:30:22;100054.66;;;12.07;49.91
77333;BME280;66408;51.326;12.070;2023-04-25T08:32:48;100067.00;;;12.13;49.92
77333;BME280;66408;51.326;12.070;2023-04-25T08:35:15;100063.63;;;12.42;49.25
77333;BME280;66408;51.326;12.070;2023-04-25T08:37:43;100061.34;;;12.53;48.99
77333;BME280;66408;51.326;12.070;2023-04-25T08:40:12;100068.91;;;12.56;47.99
77333;BME280;66408;51.326;12.070;2023-04-25T08:42:41;100070.66;;;12.69;47.25
77333;BME280;66408;51.326;12.070;2023-04-25T08:45:09;100079.97;;;12.59;47.96
77333;BME280;66408;51.326;12.070;2023-04-25T08:47:37;100076.72;;;12.75;46.66
77333;BME280;66408;51.326;12.070;2023-04-25T08:50:04;100085.06;;;12.78;47.44
77333;BME280;66408;51.326;12.070;2023-04-25T08:52:36;100086.97;;;12.95;46.20
77333;BME280;66408;51.326;12.070;2023-04-25T08:55:06;100091.50;;;12.82;45.77
77333;BME280;66408;51.326;12.070;2023-04-25T08:57:33;100094.34;;;12.94;46.71
77333;BME280;66408;51.326;12.070;2023-04-25T09:00:00;100095.75;;;13.01;47.22
77333;BME280;66408;51.326;12.070;2023-04-25T09:02:27;100097.69;;;13.00;46.91
77333;BME280;66408;51.326;12.070;2023-04-25T09:04:55;100115.72;;;12.84;46.51
77333;BME280;66408;51.326;12.070;2023-04-25T09:07:22;100114.44;;;12.64;47.03
77333;BME280;66408;51.326;12.070;2023-04-25T09:09:48;100123.78;;;12.46;47.71
77333;BME280;66408;51.326;12.070;2023-04-25T09:12:18;100123.75;;;12.29;48.63
77333;BME280;66408;51.326;12.070;2023-04-25T09:15:10;100124.88;;;12.10;49.29
77333;BME280;66408;51.326;12.070;2023-04-25T09:17:37;100123.56;;;11.99;49.47
77333;BME280;66408;51.326;12.070;2023-04-25T09:20:07;100121.97;;;11.98;50.37
77333;BME280;66408;51.326;12.070;2023-04-25T09:22:36;100133.50;;;11.95;50.00
77333;BME280;66408;51.326;12.070;2023-04-25T09:25:12;100138.31;;;11.98;50.64
77333;BME280;66408;51.326;12.070;2023-04-25T09:27:51;100137.84;;;11.96;50.08
77333;BME280;66408;51.326;12.070;2023-04-25T09:30:18;100143.28;;;12.05;50.06
77333;BME280;66408;51.326;12.070;2023-04-25T09:32:56;100144.28;;;12.17;49.92
77333;BME280;66408;51.326;12.070;2023-04-25T09:35:24;100144.59;;;12.24;50.34
77333;BME280;66408;51.326;12.070;2023-04-25T09:37:52;100140.47;;;12.36;50.21
77333;BME280;66408;51.326;12.070;2023-04-25T09:40:20;100147.03;;;12.43;50.54
77333;BME280;66408;51.326;12.070;2023-04-25T09:42:46;100145.59;;;12.54;50.14
77333;BME280;66408;51.326;12.070;2023-04-25T09:45:13;100142.69;;;12.34;49.19
77333;BME280;66408;51.326;12.070;2023-04-25T09:47:41;100147.81;;;12.52;49.16
77333;BME280;66408;51.326;12.070;2023-04-25T09:50:14;100153.28;;;12.52;48.87
77333;BME280;66408;51.326;12.070;2023-04-25T09:52:42;100146.38;;;12.38;48.83
77333;BME280;66408;51.326;12.070;2023-04-25T09:55:09;100151.03;;;12.20;49.87
77333;BME280;66408;51.326;12.070;2023-04-25T09:57:36;100149.41;;;12.10;49.91
77333;BME280;66408;51.326;12.070;2023-04-25T10:00:06;100150.28;;;11.80;50.85
77333;BME280;66408;51.326;12.070;2023-04-25T10:02:38;100147.19;;;11.73;51.28
77333;BME280;66408;51.326;12.070;2023-04-25T10:05:05;100159.56;;;11.79;51.34
77333;BME280;66408;51.326;12.070;2023-04-25T10:07:34;100157.28;;;11.72;51.05
77333;BME280;66408;51.326;12.070;2023-04-25T10:10:04;100157.78;;;11.74;50.03
77333;BME280;66408;51.326;12.070;2023-04-25T10:12:35;100158.91;;;11.73;51.58
77333;BME280;66408;51.326;12.070;2023-04-25T10:15:02;100165.28;;;11.69;51.29
77333;BME280;66408;51.326;12.070;2023-04-25T10:17:29;100158.84;;;11.65;51.28
77333;BME280;66408;51.326;12.070;2023-04-25T10:19:58;100158.22;;;11.68;51.35
77333;BME280;66408;51.326;12.070;2023-04-25T10:22:34;100162.38;;;11.65;50.82
77333;BME280;66408;51.326;12.070;2023-04-25T10:25:02;100156.94;;;11.65;50.81
77333;BME280;66408;51.326;12.070;2023-04-25T10:27:31;100161.72;;;11.60;51.99
77333;BME280;66408;51.326;12.070;2023-04-25T10:30:02;100160.56;;;11.52;52.17
77333;BME280;66408;51.326;12.070;2023-04-25T10:32:32;100161.25;;;11.66;51.44
77333;BME280;66408;51.326;12.070;2023-04-25T10:35:17;100163.72;;;11.76;51.31
77333;BME280;66408;51.326;12.070;2023-04-25T10:38:02;100163.59;;;11.81;50.96
77333;BME280;66408;51.326;12.070;2023-04-25T10:40:30;100167.75;;;11.79;51.19
77333;BME280;66408;51.326;12.070;2023-04-25T10:43:50;100165.66;;;11.76;51.41
77333;BME280;66408;51.326;12.070;2023-04-25T10:48:47;100167.03;;;11.65;51.34
77333;BME280;66408;51.326;12.070;2023-04-25T10:51:26;100173.03;;;11.44;51.70
77333;BME280;66408;51.326;12.070;2023-04-25T10:56:27;100172.72;;;11.46;52.77
77333;BME280;66408;51.326;12.070;2023-04-25T10:59:16;100176.41;;;11.50;52.34
77333;BME280;66408;51.326;12.070;2023-04-25T11:01:47;100170.84;;;11.64;52.08
77333;BME280;66408;51.326;12.070;2023-04-25T11:04:21;100182.13;;;11.71;52.34
77333;BME280;66408;51.326;12.070;2023-04-25T11:09:37;100176.97;;;11.61;49.65
77333;BME280;66408;51.326;12.070;2023-04-25T11:12:04;100184.13;;;11.57;49.98
77333;BME280;66408;51.326;12.070;2023-04-25T11:14:31;100186.19;;;11.51;49.39
77333;BME280;66408;51.326;12.070;2023-04-25T11:16:58;100184.75;;;11.53;49.91
77333;BME280;66408;51.326;12.070;2023-04-25T11:19:27;100188.47;;;11.58;48.91
77333;BME280;66408;51.326;12.070;2023-04-25T11:21:58;100192.00;;;11.58;49.02
77333;BME280;66408;51.326;12.070;2023-04-25T11:24:30;100195.16;;;11.51;50.41
77333;BME280;66408;51.326;12.070;2023-04-25T11:26:58;100194.72;;;11.58;50.12
77333;BME280;66408;51.326;12.070;2023-04-25T11:29:33;100196.34;;;11.59;51.43
77333;BME280;66408;51.326;12.070;2023-04-25T11:32:00;100191.22;;;11.66;50.10
77333;BME280;66408;51.326;12.070;2023-04-25T11:34:30;100195.81;;;11.88;50.58
77333;BME280;66408;51.326;12.070;2023-04-25T11:36:58;100200.72;;;12.26;50.51
77333;BME280;66408;51.326;12.070;2023-04-25T11:39:26;100205.59;;;12.63;49.63
77333;BME280;66408;51.326;12.070;2023-04-25T11:41:53;100206.09;;;13.17;48.41
77333;BME280;66408;51.326;12.070;2023-04-25T11:44:20;100192.94;;;13.65;46.56
77333;BME280;66408;51.326;12.070;2023-04-25T11:46:48;100192.22;;;14.15;45.02
77333;BME280;66408;51.326;12.070;2023-04-25T11:49:15;100198.94;;;14.47;44.04
77333;BME280;66408;51.326;12.070;2023-04-25T11:51:43;100194.94;;;14.65;43.40
77333;BME280;66408;51.326;12.070;2023-04-25T11:54:11;100203.09;;;14.53;43.21
77333;BME280;66408;51.326;12.070;2023-04-25T11:56:45;100199.56;;;14.23;44.40
77333;BME280;66408;51.326;12.070;2023-04-25T11:59:11;100201.91;;;14.04;45.41
77333;BME280;66408;51.326;12.070;2023-04-25T12:01:40;100205.72;;;13.82;46.00
77333;BME280;66408;51.326;12.070;2023-04-25T12:06:43;100213.09;;;13.44;47.50
77333;BME280;66408;51.326;12.070;2023-04-25T12:09:12;100206.72;;;13.22;49.28
77333;BME280;66408;51.326;12.070;2023-04-25T12:11:46;100217.00;;;13.17;49.29
77333;BME280;66408;51.326;12.070;2023-04-25T12:14:24;100209.13;;;13.07;49.16
77333;BME280;66408;51.326;12.070;2023-04-25T12:16:51;100215.22;;;12.86;49.71
77333;BME280;66408;51.326;12.070;2023-04-25T12:19:19;100219.09;;;12.85;49.50
77333;BME280;66408;51.326;12.070;2023-04-25T12:21:47;100215.53;;;12.76;49.97
77333;BME280;66408;51.326;12.070;2023-04-25T12:24:25;100211.53;;;13.00;49.55
77333;BME280;66408;51.326;12.070;2023-04-25T12:27:04;100211.03;;;13.32;48.51
77333;BME280;66408;51.326;12.070;2023-04-25T12:29:32;100218.69;;;13.56;48.01
77333;BME280;66408;51.326;12.070;2023-04-25T12:32:15;100223.97;;;13.61;46.68
77333;BME280;66408;51.326;12.070;2023-04-25T12:34:42;100228.34;;;13.45;45.48
77333;BME280;66408;51.326;12.070;2023-04-25T12:37:09;100231.25;;;13.14;43.86
77333;BME280;66408;51.326;12.070;2023-04-25T12:39:35;100230.81;;;12.60;45.48
77333;BME280;66408;51.326;12.070;2023-04-25T12:42:02;100230.56;;;12.22;45.80
77333;BME280;66408;51.326;12.070;2023-04-25T12:44:32;100239.47;;;12.05;46.37
77333;BME280;66408;51.326;12.070;2023-04-25T12:46:58;100240.09;;;11.94;45.54
77333;BME280;66408;51.326;12.070;2023-04-25T12:49:26;100237.84;;;11.65;47.35
77333;BME280;66408;51.326;12.070;2023-04-25T12:51:52;100245.16;;;11.56;46.41
77333;BME280;66408;51.326;12.070;2023-04-25T12:54:19;100236.38;;;11.59;46.02
77333;BME280;66408;51.326;12.070;2023-04-25T12:56:45;100241.06;;;11.67;46.04
77333;BME280;66408;51.326;12.070;2023-04-25T12:59:12;100240.19;;;11.80;45.43
77333;BME280;66408;51.326;12.070;2023-04-25T13:01:39;100235.78;;;12.01;45.34
77333;BME280;66408;51.326;12.070;2023-04-25T13:04:06;100235.22;;;12.30;43.94
77333;BME280;66408;51.326;12.070;2023-04-25T13:06:34;100247.66;;;12.97;43.63
77333;BME280;66408;51.326;12.070;2023-04-25T13:09:02;100240.06;;;13.54;41.98